createdAt,value
2023-02-02T00:01:09.708Z,4.03
2023-02-02T00:03:37.616Z,2.15
2023-02-02T00:06:04.391Z,3.15
2023-02-02T00:08:30.947Z,2.53
2023-02-02T00:10:57.468Z,1.90
2023-02-02T00:13:23.941Z,3.00
2023-02-02T00:15:50.464Z,2.45
2023-02-02T00:18:17.006Z,2.83
2023-02-02T00:20:44.753Z,2.53
2023-02-02T00:23:11.220Z,1.75
2023-02-02T00:25:37.743Z,2.08
2023-02-02T00:28:04.992Z,3.17
2023-02-02T00:30:31.569Z,2.42
2023-02-02T00:32:58.109Z,2.17
2023-02-02T00:35:24.916Z,2.60
2023-02-02T00:37:52.083Z,2.45
2023-02-02T00:40:18.659Z,2.42
2023-02-02T00:42:49.090Z,3.10
2023-02-02T00:45:15.815Z,2.85
2023-02-02T00:47:46.807Z,3.17
2023-02-02T00:50:20.636Z,3.10
2023-02-02T00:52:47.771Z,2.85
2023-02-02T00:55:14.489Z,2.90
2023-02-02T00:57:41.273Z,2.50
2023-02-02T01:00:08.777Z,2.47
2023-02-02T01:02:35.723Z,2.30
2023-02-02T01:05:02.413Z,2.13
2023-02-02T01:07:28.932Z,2.30
2023-02-02T01:09:55.443Z,2.60
2023-02-02T01:12:21.933Z,3.65
2023-02-02T01:14:48.729Z,2.40
2023-02-02T01:17:15.291Z,1.75
2023-02-02T01:19:41.957Z,3.22
2023-02-02T01:22:08.749Z,2.40
2023-02-02T01:24:35.235Z,2.25
2023-02-02T01:27:01.734Z,1.90
2023-02-02T01:29:28.247Z,2.40
2023-02-02T01:31:54.776Z,2.25
2023-02-02T01:34:21.296Z,2.72
2023-02-02T01:36:48.061Z,1.48
2023-02-02T01:39:14.529Z,2.42
2023-02-02T01:41:41.421Z,1.83
2023-02-02T01:44:46.535Z,1.77
2023-02-02T01:47:13.032Z,1.55
2023-02-02T01:49:39.619Z,1.55
2023-02-02T01:52:06.536Z,2.13
2023-02-02T01:54:53.202Z,1.63
2023-02-02T01:57:33.719Z,2.35
2023-02-02T02:00:01.765Z,2.00
2023-02-02T02:02:28.345Z,1.70
2023-02-02T02:04:54.803Z,1.85
2023-02-02T02:07:21.782Z,1.80
2023-02-02T02:09:48.628Z,1.48
2023-02-02T02:12:15.624Z,1.35
2023-02-02T02:15:02.062Z,1.20
2023-02-02T02:17:56.296Z,1.00
2023-02-02T02:21:09.353Z,1.00
2023-02-02T02:24:24.026Z,1.02
2023-02-02T02:27:19.483Z,1.17
2023-02-02T02:30:24.275Z,1.10
2023-02-02T02:32:52.773Z,1.90
2023-02-02T02:35:35.491Z,2.33
2023-02-02T02:38:11.098Z,0.80
2023-02-02T02:40:42.889Z,0.30
2023-02-02T02:43:13.066Z,0.10
2023-02-02T02:45:39.633Z,0.20
2023-02-02T02:48:06.346Z,0.00
2023-02-02T02:50:32.897Z,0.17
2023-02-02T02:53:33.906Z,0.10
2023-02-02T02:56:19.587Z,0.00
2023-02-02T02:58:55.052Z,0.10
2023-02-02T03:01:25.520Z,0.10
2023-02-02T03:04:08.630Z,0.10
2023-02-02T03:09:19.819Z,0.00
2023-02-02T03:11:46.276Z,0.10
2023-02-02T03:14:12.805Z,0.10
2023-02-02T03:16:39.352Z,0.20
2023-02-02T03:19:06.135Z,0.10
2023-02-02T03:21:33.099Z,0.10
2023-02-02T03:23:59.781Z,0.10
2023-02-02T03:26:26.263Z,0.20
2023-02-02T03:28:52.992Z,0.00
2023-02-02T03:31:19.660Z,0.10
2023-02-02T03:33:46.136Z,0.10
2023-02-02T03:36:12.605Z,0.20
2023-02-02T03:38:39.111Z,0.20
2023-02-02T03:41:06.389Z,0.30
2023-02-02T03:43:32.846Z,0.30
2023-02-02T03:46:00.958Z,0.10
2023-02-02T03:48:27.553Z,0.30
2023-02-02T03:50:54.151Z,0.15
2023-02-02T03:53:20.778Z,0.13
2023-02-02T03:55:47.268Z,1.30
2023-02-02T03:58:13.778Z,0.90
2023-02-02T04:00:40.357Z,0.40
2023-02-02T04:03:06.883Z,0.20
2023-02-02T04:05:33.385Z,0.22
2023-02-02T04:07:59.958Z,1.15
2023-02-02T04:10:26.499Z,0.40
2023-02-02T04:12:53.079Z,0.57
2023-02-02T04:15:19.604Z,0.40
2023-02-02T04:17:46.091Z,0.20
2023-02-02T04:20:12.571Z,0.00
2023-02-02T04:22:39.057Z,0.00
2023-02-02T04:25:05.832Z,0.10
2023-02-02T04:27:33.950Z,0.20
2023-02-02T04:30:00.467Z,0.00
2023-02-02T04:32:26.964Z,0.10
2023-02-02T04:34:53.471Z,0.20
2023-02-02T04:37:19.985Z,0.40
2023-02-02T04:39:46.485Z,0.15
2023-02-02T04:42:12.981Z,0.10
2023-02-02T04:44:39.896Z,0.30
2023-02-02T04:47:06.359Z,0.20
2023-02-02T04:49:32.855Z,0.20
2023-02-02T04:51:59.484Z,0.05
2023-02-02T04:54:26.124Z,0.20
2023-02-02T04:56:52.621Z,0.10
2023-02-02T04:59:19.113Z,0.00
2023-02-02T05:01:45.624Z,0.00
2023-02-02T05:04:12.352Z,0.10
2023-02-02T05:06:38.876Z,0.10
2023-02-02T05:09:05.352Z,0.10
2023-02-02T05:11:31.923Z,0.10
2023-02-02T05:13:58.407Z,0.10
2023-02-02T05:16:27.025Z,0.05
2023-02-02T05:18:56.632Z,0.00
2023-02-02T05:21:23.425Z,0.00
2023-02-02T05:23:49.926Z,0.20
2023-02-02T05:26:23.506Z,0.10
2023-02-02T05:28:50.059Z,0.03
2023-02-02T05:31:16.585Z,0.20
2023-02-02T05:33:43.171Z,0.00
2023-02-02T05:36:09.732Z,0.22
2023-02-02T05:38:37.450Z,0.10
2023-02-02T05:41:04.139Z,0.30
2023-02-02T05:43:31.293Z,0.20
2023-02-02T05:45:57.856Z,0.20
2023-02-02T05:48:24.497Z,1.10
2023-02-02T05:51:07.184Z,8.85
2023-02-02T05:53:33.664Z,7.38
2023-02-02T05:56:00.187Z,2.38
2023-02-02T05:58:26.673Z,0.70
2023-02-02T06:00:55.011Z,0.30
2023-02-02T06:03:23.020Z,0.55
2023-02-02T06:05:49.597Z,0.40
2023-02-02T06:08:16.410Z,0.30
2023-02-02T06:10:42.965Z,0.52
2023-02-02T06:13:09.455Z,0.40
2023-02-02T06:15:36.405Z,0.73
2023-02-02T06:18:03.055Z,0.70
2023-02-02T06:20:29.688Z,0.90
2023-02-02T06:22:56.223Z,0.60
2023-02-02T06:25:23.143Z,0.30
2023-02-02T06:27:50.217Z,0.60
2023-02-02T06:30:16.802Z,0.82
2023-02-02T06:32:43.362Z,0.22
2023-02-02T06:35:09.935Z,0.85
2023-02-02T06:37:38.997Z,1.05
2023-02-02T06:40:07.226Z,1.60
2023-02-02T06:42:34.163Z,0.70
2023-02-02T06:45:00.670Z,0.90
2023-02-02T06:47:27.362Z,0.60
2023-02-02T06:49:53.872Z,0.35
2023-02-02T06:52:20.503Z,0.60
2023-02-02T06:54:46.965Z,0.80
2023-02-02T06:57:13.446Z,0.70
2023-02-02T06:59:41.628Z,2.50
2023-02-02T07:02:11.527Z,1.98
2023-02-02T07:04:38.013Z,3.70
2023-02-02T07:07:04.676Z,4.03
2023-02-02T07:09:34.369Z,2.33
2023-02-02T07:12:00.866Z,0.75
2023-02-02T07:14:27.503Z,0.60
2023-02-02T07:16:53.990Z,0.90
2023-02-02T07:19:20.562Z,0.95
2023-02-02T07:21:47.047Z,0.77
2023-02-02T07:24:13.569Z,0.70
2023-02-02T07:26:40.139Z,2.40
2023-02-02T07:29:06.813Z,2.47
2023-02-02T07:31:36.071Z,3.15
2023-02-02T07:34:03.188Z,6.78
2023-02-02T07:36:29.994Z,1.23
2023-02-02T07:38:59.645Z,0.57
2023-02-02T07:41:27.826Z,0.32
2023-02-02T07:43:54.381Z,0.90
2023-02-02T07:46:20.965Z,0.70
2023-02-02T07:48:47.489Z,0.95
2023-02-02T07:51:16.452Z,1.00
2023-02-02T07:53:44.934Z,1.00
2023-02-02T07:56:15.374Z,1.40
2023-02-02T07:58:42.046Z,1.10
2023-02-02T08:01:09.531Z,0.50
2023-02-02T08:03:36.264Z,0.52
2023-02-02T08:06:32.220Z,1.60
2023-02-02T08:08:59.287Z,0.70
2023-02-02T08:11:26.157Z,1.30
2023-02-02T08:13:54.145Z,0.60
2023-02-02T08:16:22.061Z,0.60
2023-02-02T08:18:48.686Z,0.68
2023-02-02T08:21:16.133Z,1.05
2023-02-02T08:23:42.718Z,1.10
2023-02-02T08:26:16.445Z,0.85
2023-02-02T08:28:43.740Z,0.40
2023-02-02T08:31:17.233Z,0.75
2023-02-02T08:33:43.805Z,0.75
2023-02-02T08:36:14.185Z,0.88
2023-02-02T08:38:41.498Z,0.80
2023-02-02T08:41:08.937Z,0.90
2023-02-02T08:43:35.451Z,0.75
2023-02-02T08:46:05.522Z,1.40
2023-02-02T08:48:32.520Z,0.50
2023-02-02T08:50:59.614Z,0.50
2023-02-02T08:53:26.424Z,0.60
2023-02-02T08:56:15.432Z,0.50
2023-02-02T08:58:46.160Z,0.80
2023-02-02T09:01:17.484Z,0.40
2023-02-02T09:03:44.173Z,0.50
2023-02-02T09:06:12.424Z,0.60
2023-02-02T09:08:39.151Z,0.55
2023-02-02T09:11:10.744Z,0.40
2023-02-02T09:13:37.803Z,1.85
2023-02-02T09:16:05.494Z,0.60
2023-02-02T09:18:32.096Z,0.65
2023-02-02T09:21:03.045Z,0.50
2023-02-02T09:23:31.113Z,0.10
2023-02-02T09:25:57.738Z,0.30
2023-02-02T09:28:24.599Z,0.88
2023-02-02T09:30:51.451Z,0.80
2023-02-02T09:33:17.975Z,0.32
2023-02-02T09:35:44.492Z,0.40
2023-02-02T09:38:10.976Z,1.73
2023-02-02T09:40:37.528Z,3.00
2023-02-02T09:43:28.011Z,1.08
2023-02-02T09:46:12.792Z,2.30
2023-02-02T09:49:08.220Z,1.13
2023-02-02T09:51:37.810Z,0.50
2023-02-02T09:54:26.975Z,0.60
2023-02-02T09:56:55.828Z,0.70
2023-02-02T09:59:34.204Z,0.80
2023-02-02T10:02:19.162Z,0.50
2023-02-02T10:04:49.063Z,0.63
2023-02-02T10:07:18.734Z,0.70
2023-02-02T10:09:58.218Z,0.77
2023-02-02T10:12:40.876Z,1.00
2023-02-02T10:15:23.127Z,1.15
2023-02-02T10:17:51.334Z,2.80
2023-02-02T10:20:21.046Z,3.10
2023-02-02T10:22:47.560Z,3.05
2023-02-02T10:25:14.718Z,2.72
2023-02-02T10:27:41.289Z,2.60
2023-02-02T10:30:15.865Z,2.80
2023-02-02T10:32:47.731Z,2.75
2023-02-02T10:35:48.179Z,3.20
2023-02-02T10:38:37.698Z,2.63
2023-02-02T10:41:29.181Z,2.67
2023-02-02T10:44:01.691Z,3.20
2023-02-02T10:46:32.312Z,2.60
2023-02-02T10:49:39.519Z,3.03
2023-02-02T10:52:11.999Z,2.95
2023-02-02T10:54:58.356Z,2.90
2023-02-02T10:57:39.608Z,3.03
2023-02-02T11:00:32.199Z,3.05
2023-02-02T11:03:00.317Z,3.22
2023-02-02T11:05:47.152Z,2.55
2023-02-02T11:08:21.318Z,3.00
2023-02-02T11:10:49.880Z,2.97
2023-02-02T11:13:22.893Z,3.10
2023-02-02T11:15:49.436Z,3.15
2023-02-02T11:18:29.821Z,2.42
2023-02-02T11:20:56.556Z,2.47
2023-02-02T11:23:23.075Z,2.63
2023-02-02T11:26:00.350Z,2.10
2023-02-02T11:28:30.233Z,2.53
2023-02-02T11:30:56.800Z,3.72
2023-02-02T11:33:34.671Z,4.10
2023-02-02T11:36:02.905Z,3.33
2023-02-02T11:38:29.640Z,5.97
2023-02-02T11:41:04.295Z,5.38
2023-02-02T11:43:41.914Z,4.25
2023-02-02T11:46:17.330Z,5.13
2023-02-02T11:48:50.513Z,4.43
2023-02-02T11:51:24.574Z,4.18
2023-02-02T11:53:59.193Z,5.50
2023-02-02T11:56:26.285Z,7.60
2023-02-02T11:58:58.965Z,7.88
2023-02-02T12:01:35.599Z,20.95
2023-02-02T12:04:23.630Z,13.75
2023-02-02T12:06:50.288Z,6.88
2023-02-02T12:09:22.199Z,4.40
2023-02-02T12:12:11.540Z,4.50
2023-02-02T12:14:53.006Z,5.55
2023-02-02T12:17:32.994Z,5.75
2023-02-02T12:20:02.612Z,5.25
2023-02-02T12:23:07.681Z,9.90
2023-02-02T12:25:54.438Z,10.85
2023-02-02T12:28:31.207Z,3.97
2023-02-02T12:31:10.192Z,3.00
2023-02-02T12:33:46.998Z,3.08
2023-02-02T12:36:27.819Z,3.00
2023-02-02T12:39:09.849Z,2.95
2023-02-02T12:41:54.273Z,4.45
2023-02-02T12:44:31.425Z,3.63
2023-02-02T12:47:39.892Z,3.00
2023-02-02T12:50:12.257Z,2.75
2023-02-02T12:52:48.073Z,3.00
2023-02-02T12:55:17.751Z,2.60
2023-02-02T12:58:13.569Z,3.72
2023-02-02T13:00:43.445Z,4.13
2023-02-02T13:03:31.320Z,10.75
2023-02-02T13:06:16.443Z,7.95
2023-02-02T13:08:48.060Z,9.38
2023-02-02T13:11:33.077Z,7.65
2023-02-02T13:14:11.727Z,12.07
2023-02-02T13:16:41.014Z,6.03
2023-02-02T13:19:08.415Z,7.63
2023-02-02T13:21:34.978Z,6.70
2023-02-02T13:24:05.022Z,8.60
2023-02-02T13:26:38.487Z,16.50
2023-02-02T13:29:11.035Z,22.48
2023-02-02T13:31:52.197Z,27.23
2023-02-02T13:34:31.886Z,25.23
2023-02-02T13:37:06.817Z,11.82
2023-02-02T13:39:34.785Z,8.15
2023-02-02T13:42:02.824Z,6.45
2023-02-02T13:44:32.665Z,6.78
2023-02-02T13:47:09.179Z,7.05
2023-02-02T13:49:42.860Z,7.28
2023-02-02T13:52:12.394Z,6.25
2023-02-02T13:54:53.037Z,6.43
2023-02-02T13:57:28.805Z,7.10
2023-02-02T14:00:12.052Z,7.80
2023-02-02T14:02:44.335Z,17.50
2023-02-02T14:05:27.381Z,5.40
2023-02-02T14:08:06.793Z,5.22
2023-02-02T14:10:36.031Z,4.18
2023-02-02T14:13:32.544Z,3.65
2023-02-02T14:16:00.707Z,3.70
2023-02-02T14:18:49.576Z,3.40
2023-02-02T14:21:34.049Z,3.42
2023-02-02T14:24:12.824Z,3.67
2023-02-02T14:26:45.621Z,3.92
2023-02-02T14:29:34.797Z,3.17
2023-02-02T14:32:24.186Z,2.08
2023-02-02T14:34:54.104Z,2.33
2023-02-02T14:37:23.505Z,2.83
2023-02-02T14:40:06.644Z,3.25
2023-02-02T14:42:54.799Z,2.97
2023-02-02T14:45:27.796Z,3.58
2023-02-02T14:48:06.871Z,4.05
2023-02-02T14:50:39.300Z,3.80
2023-02-02T14:53:43.199Z,4.22
2023-02-02T14:56:10.772Z,3.90
2023-02-02T14:58:49.922Z,5.25
2023-02-02T15:01:25.005Z,6.30
2023-02-02T15:03:56.080Z,3.75
2023-02-02T15:06:22.529Z,3.83
2023-02-02T15:09:19.837Z,3.80
2023-02-02T15:12:04.513Z,4.30
2023-02-02T15:14:44.889Z,4.05
2023-02-02T15:17:34.474Z,4.65
2023-02-02T15:20:05.738Z,4.18
2023-02-02T15:22:47.825Z,4.57
2023-02-02T15:25:36.298Z,6.07
2023-02-02T15:28:14.074Z,6.35
2023-02-02T15:30:42.648Z,5.90
2023-02-02T15:33:26.803Z,5.15
2023-02-02T15:35:53.649Z,4.05
2023-02-02T15:38:20.448Z,6.30
2023-02-02T15:40:47.094Z,6.03
2023-02-02T15:43:14.018Z,6.20
2023-02-02T15:45:47.868Z,5.95
2023-02-02T15:48:25.387Z,6.90
2023-02-02T15:50:55.917Z,9.00
2023-02-02T15:53:45.698Z,11.85
2023-02-02T15:56:29.409Z,13.45
2023-02-02T15:58:58.458Z,9.15
2023-02-02T16:01:25.668Z,8.57
2023-02-02T16:04:26.633Z,5.97
2023-02-02T16:06:53.375Z,7.03
2023-02-02T16:09:25.920Z,6.30
2023-02-02T16:11:52.583Z,5.35
2023-02-02T16:14:19.067Z,4.05
2023-02-02T16:16:47.563Z,3.35
2023-02-02T16:19:20.704Z,3.80
2023-02-02T16:21:47.121Z,4.68
2023-02-02T16:24:21.789Z,4.28
2023-02-02T16:26:48.489Z,5.68
2023-02-02T16:29:17.351Z,5.57
2023-02-02T16:31:47.325Z,5.07
2023-02-02T16:34:18.431Z,3.33
2023-02-02T16:36:44.922Z,3.80
2023-02-02T16:39:16.539Z,3.53
2023-02-02T16:41:44.867Z,3.03
2023-02-02T16:44:30.958Z,2.70
2023-02-02T16:46:57.634Z,3.22
2023-02-02T16:49:26.170Z,2.88
2023-02-02T16:52:19.960Z,2.85
2023-02-02T16:54:55.845Z,2.20
2023-02-02T16:57:33.115Z,2.38
2023-02-02T17:00:01.622Z,2.47
2023-02-02T17:02:39.046Z,3.70
2023-02-02T17:05:16.296Z,3.05
2023-02-02T17:07:49.988Z,2.67
2023-02-02T17:10:16.401Z,2.80
2023-02-02T17:12:43.342Z,2.08
2023-02-02T17:15:18.895Z,2.50
2023-02-02T17:17:48.715Z,2.33
2023-02-02T17:20:16.062Z,2.08
2023-02-02T17:22:45.380Z,2.60
2023-02-02T17:25:21.905Z,2.33
2023-02-02T17:27:48.469Z,2.65
2023-02-02T17:30:18.510Z,4.10
2023-02-02T17:32:44.987Z,5.35
2023-02-02T17:35:25.972Z,3.75
2023-02-02T17:37:53.528Z,2.97
2023-02-02T17:40:21.497Z,3.08
2023-02-02T17:42:51.809Z,3.40
2023-02-02T17:45:28.301Z,5.88
2023-02-02T17:47:54.928Z,5.90
2023-02-02T17:50:24.568Z,9.63
2023-02-02T17:52:51.315Z,12.95
2023-02-02T17:55:32.365Z,5.18
2023-02-02T17:57:58.876Z,2.50
2023-02-02T18:00:26.719Z,2.20
2023-02-02T18:02:57.236Z,2.40
2023-02-02T18:05:24.196Z,2.13
2023-02-02T18:07:50.869Z,1.85
2023-02-02T18:10:19.334Z,1.70
2023-02-02T18:12:45.859Z,2.60
2023-02-02T18:15:13.122Z,2.30
2023-02-02T18:17:39.852Z,2.00
2023-02-02T18:20:06.802Z,1.63
2023-02-02T18:22:33.343Z,1.52
2023-02-02T18:25:00.059Z,1.80
2023-02-02T18:27:29.182Z,1.50
2023-02-02T18:29:55.899Z,2.10
2023-02-02T18:32:22.415Z,2.20
2023-02-02T18:34:51.332Z,4.47
2023-02-02T18:37:18.196Z,3.90
2023-02-02T18:39:45.346Z,3.75
2023-02-02T18:42:11.929Z,2.92
2023-02-02T18:44:38.620Z,3.38
2023-02-02T18:47:06.132Z,3.05
2023-02-02T18:49:32.643Z,2.70
2023-02-02T18:51:59.109Z,2.13
2023-02-02T18:54:25.777Z,4.20
2023-02-02T18:56:52.264Z,4.47
2023-02-02T18:59:18.789Z,5.53
2023-02-02T19:01:45.386Z,6.82
2023-02-02T19:04:11.984Z,7.70
2023-02-02T19:06:56.868Z,9.68
2023-02-02T19:09:24.734Z,8.68
2023-02-02T19:11:51.619Z,7.45
2023-02-02T19:14:26.597Z,6.25
2023-02-02T19:16:59.348Z,5.93
2023-02-02T19:19:33.434Z,5.60
2023-02-02T19:22:01.534Z,6.68
2023-02-02T19:24:33.259Z,8.32
2023-02-02T19:26:59.753Z,8.15
2023-02-02T19:29:28.759Z,9.75
2023-02-02T19:32:23.084Z,10.23
2023-02-02T19:34:51.659Z,12.50
2023-02-02T19:37:25.979Z,12.02
2023-02-02T19:40:08.315Z,12.75
2023-02-02T19:42:35.498Z,10.75
2023-02-02T19:45:09.186Z,10.95
2023-02-02T19:47:35.687Z,12.65
2023-02-02T19:50:15.726Z,11.68
2023-02-02T19:52:42.215Z,12.40
2023-02-02T19:55:28.366Z,10.32
2023-02-02T19:58:02.137Z,9.10
2023-02-02T20:00:30.148Z,10.10
2023-02-02T20:03:07.401Z,10.13
2023-02-02T20:05:41.399Z,11.15
2023-02-02T20:08:13.908Z,10.27
2023-02-02T20:10:44.457Z,10.00
2023-02-02T20:13:21.244Z,10.57
2023-02-02T20:15:48.909Z,9.23
2023-02-02T20:18:23.367Z,8.82
2023-02-02T20:20:54.426Z,9.02
2023-02-02T20:23:42.947Z,8.63
2023-02-02T20:26:33.410Z,9.00
2023-02-02T20:29:01.091Z,8.60
2023-02-02T20:31:35.698Z,9.00
2023-02-02T20:34:02.421Z,11.55
2023-02-02T20:36:38.716Z,11.35
2023-02-02T20:39:34.450Z,12.27
2023-02-02T20:42:01.060Z,10.13
2023-02-02T20:44:28.203Z,15.95
2023-02-02T20:46:54.984Z,21.63
2023-02-02T20:49:25.346Z,29.40
2023-02-02T20:51:53.575Z,24.27
2023-02-02T20:54:20.903Z,19.15
2023-02-02T20:56:47.544Z,13.77
2023-02-02T20:59:14.523Z,13.30
2023-02-02T21:01:41.188Z,15.35
2023-02-02T21:04:07.778Z,17.20
2023-02-02T21:06:35.151Z,12.07
2023-02-02T21:09:01.686Z,10.95
2023-02-02T21:11:28.190Z,10.70
2023-02-02T21:13:55.212Z,11.15
2023-02-02T21:16:22.290Z,10.80
2023-02-02T21:18:48.848Z,11.65
2023-02-02T21:21:16.883Z,13.10
2023-02-02T21:23:47.386Z,11.07
2023-02-02T21:26:14.693Z,12.88
2023-02-02T21:28:41.231Z,15.77
2023-02-02T21:31:08.728Z,11.30
2023-02-02T21:33:35.312Z,11.82
2023-02-02T21:36:08.823Z,11.50
2023-02-02T21:38:35.299Z,13.15
2023-02-02T21:41:01.872Z,13.90
2023-02-02T21:43:28.431Z,12.38
2023-02-02T21:45:57.130Z,12.43
2023-02-02T21:48:27.848Z,12.18
2023-02-02T21:50:54.394Z,11.48
2023-02-02T21:53:22.695Z,10.43
2023-02-02T21:55:54.266Z,10.27
2023-02-02T21:58:34.058Z,10.65
2023-02-02T22:01:18.491Z,11.38
2023-02-02T22:03:46.759Z,9.90
2023-02-02T22:06:24.548Z,7.72
2023-02-02T22:08:51.194Z,8.05
2023-02-02T22:11:47.850Z,7.20
2023-02-02T22:14:17.466Z,7.65
2023-02-02T22:17:02.430Z,7.60
2023-02-02T22:19:33.972Z,9.00
2023-02-02T22:22:09.484Z,10.43
2023-02-02T22:24:36.276Z,8.80
2023-02-02T22:27:02.827Z,9.50
2023-02-02T22:29:29.722Z,10.25
2023-02-02T22:31:56.246Z,10.35
2023-02-02T22:34:22.843Z,9.23
2023-02-02T22:36:49.373Z,10.23
2023-02-02T22:39:16.088Z,10.82
2023-02-02T22:41:42.683Z,9.65
2023-02-02T22:44:09.286Z,8.40
2023-02-02T22:46:35.798Z,9.65
2023-02-02T22:49:02.299Z,10.27
2023-02-02T22:51:28.845Z,10.25
2023-02-02T22:53:55.349Z,10.35
2023-02-02T22:56:21.857Z,9.88
2023-02-02T22:58:48.791Z,10.45
2023-02-02T23:01:15.452Z,11.18
2023-02-02T23:03:42.043Z,11.65
2023-02-02T23:06:09.074Z,9.68
2023-02-02T23:08:35.589Z,11.50
2023-02-02T23:11:02.078Z,11.88
2023-02-02T23:13:28.597Z,10.05
2023-02-02T23:15:56.690Z,11.27
2023-02-02T23:18:23.239Z,9.90
2023-02-02T23:20:50.505Z,11.43
2023-02-02T23:23:16.968Z,11.68
2023-02-02T23:25:43.430Z,12.65
2023-02-02T23:28:10.524Z,11.73
2023-02-02T23:30:37.888Z,11.50
2023-02-02T23:33:04.388Z,11.02
2023-02-02T23:35:30.905Z,10.00
2023-02-02T23:37:57.394Z,10.30
2023-02-02T23:40:24.112Z,10.32
2023-02-02T23:42:51.063Z,8.98
2023-02-02T23:45:17.621Z,8.05
2023-02-02T23:47:44.185Z,8.30
2023-02-02T23:50:11.310Z,7.32
2023-02-02T23:52:37.850Z,6.22
2023-02-02T23:55:04.761Z,6.22
2023-02-02T23:57:33.690Z,5.85
